Time;durP1;ratioP1;P1;durP2;ratioP2;P2;SDS_P1;SDS_P2;PMS_P1;PMS_P2;Temp;Humidity;BMP_temperature;BMP_pressure;BME280_temperature;BME280_humidity;BME280_pressure;Samples;Min_cycle;Max_cycle;Signal;HPM_P1;HPM_P2
2022/06/03 00:00:18;;;;;;;;;;;;;;;15.50;47.27;97202.47;6246460;28;20011;-67
2022/06/03 00:03:36;;;;;;;;;;;;;;;15.57;47.30;97208.09;6246314;28;19921;-67
2022/06/03 00:06:39;;;;;;;;;;;;;;;15.56;47.35;97207.28;6246492;28;20354;-67
2022/06/03 00:09:56;;;;;;;;;;;;;;;15.63;47.40;97208.47;6246570;28;19928;-68
2022/06/03 00:13:15;;;;;;;;;;;;;;;15.65;47.38;97209.22;6245792;28;19928;-68
2022/06/03 00:16:25;;;;;;;;;;;;;;;15.63;47.00;97208.47;6245528;28;20451;-67
2022/06/03 00:19:48;;;;;;;;;;;;;;;15.61;47.36;97199.78;6246080;28;19921;-67
2022/06/03 00:22:54;;;;;;;;;;;;;;;15.66;47.03;97202.94;6246076;28;19921;-67
2022/06/03 00:26:08;;;;;;;;;;;;;;;15.71;46.94;97205.25;6245843;28;20358;-68
2022/06/03 00:29:31;;;;;;;;;;;;;;;15.74;46.95;97209.44;6246078;28;19921;-68
2022/06/03 00:32:40;;;;;;;;;;;;;;;15.78;46.76;97206.44;6245905;28;19994;-67
2022/06/03 00:35:47;;;;;;;;;;;;;;;15.83;46.93;97206.91;6245712;28;19920;-68
2022/06/03 00:38:56;;;;;;;;;;;;;;;15.91;46.87;97211.59;6244762;28;19961;-67
2022/06/03 00:42:15;;;;;;;;;;;;;;;15.90;46.72;97207.25;6245871;28;20307;-68
2022/06/03 00:45:25;;;;;;;;;;;;;;;15.94;46.61;97216.66;6245535;28;20019;-68
2022/06/03 00:48:40;;;;;;;;;;;;;;;15.97;46.57;97216.41;6245787;28;19921;-69
2022/06/03 00:51:59;;;;;;;;;;;;;;;16.04;46.64;97206.97;6245873;28;19921;-67
2022/06/03 00:55:09;;;;;;;;;;;;;;;16.10;46.65;97214.41;6246078;28;19921;-69
2022/06/03 00:58:30;;;;;;;;;;;;;;;16.15;46.73;97216.72;6245846;28;19921;-68
2022/06/03 01:01:34;;;;;;;;;;;;;;;16.20;46.40;97209.22;6243769;28;19921;-67
2022/06/03 01:04:53;;;;;;;;;;;;;;;16.23;46.27;97210.78;6245708;28;20411;-67
2022/06/03 01:08:09;;;;;;;;;;;;;;;16.23;46.29;97206.31;6245864;28;20396;-67
2022/06/03 01:11:22;;;;;;;;;;;;;;;16.20;46.38;97211.88;6245686;28;19924;-67
2022/06/03 01:14:41;;;;;;;;;;;;;;;16.16;46.43;97211.28;6245544;28;19928;-68
2022/06/03 01:17:56;;;;;;;;;;;;;;;16.21;46.52;97207.41;6243889;28;20296;-68
2022/06/03 01:21:15;;;;;;;;;;;;;;;16.20;46.75;97211.03;6245511;28;19928;-68
2022/06/03 01:24:21;;;;;;;;;;;;;;;16.21;46.68;97213.53;6246056;28;20308;-66
2022/06/03 01:27:44;;;;;;;;;;;;;;;16.25;46.49;97214.13;6249684;28;20423;-68
2022/06/03 01:30:45;;;;;;;;;;;;;;;16.33;46.78;97211.69;6250103;28;20430;-69
2022/06/03 01:33:46;;;;;;;;;;;;;;;16.41;46.70;97205.75;6249997;28;20380;-68
2022/06/03 01:37:08;;;;;;;;;;;;;;;16.43;47.09;97217.94;6250003;28;20364;-67
2022/06/03 01:40:21;;;;;;;;;;;;;;;16.51;46.71;97214.66;6249819;28;19921;-67
2022/06/03 01:43:25;;;;;;;;;;;;;;;16.59;46.73;97223.66;6249435;28;19920;-68
2022/06/03 01:46:30;;;;;;;;;;;;;;;16.74;46.71;97223.34;6249581;28;19921;-68
2022/06/03 01:49:52;;;;;;;;;;;;;;;16.82;46.65;97223.56;6249308;28;19921;-67
2022/06/03 01:52:53;;;;;;;;;;;;;;;16.94;46.36;97222.53;6249778;28;19921;-66
2022/06/03 01:56:14;;;;;;;;;;;;;;;17.06;46.69;97221.47;6249030;28;20386;-67
2022/06/03 01:59:36;;;;;;;;;;;;;;;17.19;46.05;97223.09;6249116;28;20063;-67
2022/06/03 02:02:37;;;;;;;;;;;;;;;17.34;45.82;97213.78;6249238;28;19928;-67
2022/06/03 02:05:49;;;;;;;;;;;;;;;17.41;46.01;97217.59;6248963;28;19921;-67
2022/06/03 02:09:17;;;;;;;;;;;;;;;17.50;47.05;97216.78;6248781;28;19921;-67
2022/06/03 02:12:21;;;;;;;;;;;;;;;17.62;46.11;97219.34;6247881;28;19975;-68
2022/06/03 02:15:40;;;;;;;;;;;;;;;17.73;45.45;97214.75;6248944;28;19920;-68
2022/06/03 02:18:49;;;;;;;;;;;;;;;17.88;45.34;97217.91;6248698;28;20509;-68
2022/06/03 02:22:04;;;;;;;;;;;;;;;18.07;45.43;97216.28;6248629;28;19928;-67
2022/06/03 02:25:05;;;;;;;;;;;;;;;18.22;45.28;97214.88;6247428;28;19927;-67
2022/06/03 02:28:12;;;;;;;;;;;;;;;18.28;44.84;97214.31;6248406;28;19928;-68
2022/06/03 02:31:24;;;;;;;;;;;;;;;18.46;45.07;97211.81;6248728;28;19921;-68
2022/06/03 02:34:35;;;;;;;;;;;;;;;18.53;44.88;97210.25;6248669;28;19921;-68
2022/06/03 02:37:39;;;;;;;;;;;;;;;18.68;44.50;97216.00;6247557;28;19932;-67
2022/06/03 02:41:01;;;;;;;;;;;;;;;18.74;44.28;97207.50;6248328;28;20418;-67
2022/06/03 02:44:12;;;;;;;;;;;;;;;18.80;44.13;97209.59;6248021;28;19921;-67
2022/06/03 02:47:41;;;;;;;;;;;;;;;18.86;44.00;97207.34;6248119;28;19921;-67
2022/06/03 02:51:17;;;;;;;;;;;;;;;19.00;44.09;97209.56;6247822;28;19924;-67
2022/06/03 02:54:29;;;;;;;;;;;;;;;19.03;43.75;97201.25;6244590;28;20326;-68
2022/06/03 02:57:30;;;;;;;;;;;;;;;19.14;44.04;97208.25;6247255;28;19927;-66
2022/06/03 03:00:37;;;;;;;;;;;;;;;19.31;43.46;97207.50;6247565;28;20403;-67
2022/06/03 03:03:56;;;;;;;;;;;;;;;19.39;43.07;97204.06;6247480;28;19929;-68
2022/06/03 03:07:25;;;;;;;;;;;;;;;19.61;42.81;97203.69;6247720;28;20067;-68
2022/06/03 03:10:40;;;;;;;;;;;;;;;19.64;42.76;97198.06;6247321;28;20376;-67
2022/06/03 03:14:04;;;;;;;;;;;;;;;19.81;42.65;97203.63;6247489;28;19921;-68
2022/06/03 03:17:44;;;;;;;;;;;;;;;19.92;42.07;97208.78;6247573;28;19920;-68
2022/06/03 03:20:54;;;;;;;;;;;;;;;20.02;41.76;97198.88;6243231;28;19943;-67
2022/06/03 03:24:17;;;;;;;;;;;;;;;20.28;41.75;97201.66;6244271;28;20335;-68
2022/06/03 03:27:21;;;;;;;;;;;;;;;20.31;41.30;97192.50;6247194;28;19929;-67
2022/06/03 03:30:27;;;;;;;;;;;;;;;20.45;40.93;97197.28;6246872;28;19921;-67
2022/06/03 03:33:31;;;;;;;;;;;;;;;20.67;40.04;97195.19;6245547;28;19920;-68
2022/06/03 03:36:44;;;;;;;;;;;;;;;20.78;39.44;97192.28;6246850;28;19921;-67
2022/06/03 03:40:03;;;;;;;;;;;;;;;20.85;39.28;97193.31;6246972;28;20398;-67
2022/06/03 03:43:23;;;;;;;;;;;;;;;21.01;38.95;97188.09;6246996;28;19921;-66
2022/06/03 03:46:43;;;;;;;;;;;;;;;21.07;38.87;97187.44;6246852;28;19928;-67
2022/06/03 03:49:59;;;;;;;;;;;;;;;21.16;38.62;97184.81;6246887;28;20409;-67
2022/06/03 03:53:14;;;;;;;;;;;;;;;21.26;38.79;97180.22;6246445;28;20324;-67
2022/06/03 03:56:21;;;;;;;;;;;;;;;21.36;38.54;97172.88;6246231;28;19920;-67
2022/06/03 03:59:37;;;;;;;;;;;;;;;21.48;38.42;97168.13;6246432;28;19920;-68
2022/06/03 04:02:56;;;;;;;;;;;;;;;21.80;36.84;97172.78;6246228;28;20296;-66
2022/06/03 04:06:23;;;;;;;;;;;;;;;21.83;36.79;97166.25;6246601;28;20032;-68
2022/06/03 04:09:44;;;;;;;;;;;;;;;21.97;36.05;97158.41;6245151;28;19921;-67
2022/06/03 04:13:00;;;;;;;;;;;;;;;22.08;35.72;97162.63;6246165;28;19979;-68
2022/06/03 04:16:01;;;;;;;;;;;;;;;22.12;35.49;97157.78;6246703;28;19916;-67
2022/06/03 04:19:08;;;;;;;;;;;;;;;22.10;34.98;97163.28;6246124;28;20453;-67
2022/06/03 04:22:18;;;;;;;;;;;;;;;22.20;34.97;97155.16;6245507;28;19928;-67
2022/06/03 04:25:34;;;;;;;;;;;;;;;22.46;34.02;97146.94;6245732;28;19929;-67
2022/06/03 04:28:56;;;;;;;;;;;;;;;22.58;33.84;97144.75;6245837;28;19921;-67
2022/06/03 04:32:03;;;;;;;;;;;;;;;22.71;33.60;97150.47;6245934;28;20297;-68
2022/06/03 04:35:16;;;;;;;;;;;;;;;22.94;32.71;97144.41;6245902;28;19928;-67
2022/06/03 04:38:32;;;;;;;;;;;;;;;23.02;32.86;97147.09;6246060;28;19921;-67
2022/06/03 04:41:47;;;;;;;;;;;;;;;24.01;30.77;97158.34;6245906;28;19921;-68
2022/06/03 04:45:00;;;;;;;;;;;;;;;26.30;26.61;97162.25;6245806;28;19943;-67
2022/06/03 04:48:07;;;;;;;;;;;;;;;28.24;23.85;97164.44;6245747;28;20384;-67
2022/06/03 04:51:24;;;;;;;;;;;;;;;30.30;22.36;97156.94;6245721;28;19921;-67
2022/06/03 04:54:25;;;;;;;;;;;;;;;32.39;19.80;97172.75;6245853;28;19927;-67
2022/06/03 04:57:47;;;;;;;;;;;;;;;34.23;17.93;97160.75;6245443;28;20380;-67
2022/06/03 05:00:53;;;;;;;;;;;;;;;36.18;15.79;97170.16;6248923;28;20389;-67
2022/06/03 05:04:15;;;;;;;;;;;;;;;37.72;14.99;97172.38;6250085;28;19921;-66
2022/06/03 05:07:21;;;;;;;;;;;;;;;39.57;14.13;97168.91;6250038;28;19927;-67
2022/06/03 05:10:43;;;;;;;;;;;;;;;41.02;12.33;97168.78;6250476;28;19920;-67
2022/06/03 05:14:03;;;;;;;;;;;;;;;41.24;12.11;97173.03;6250406;28;19928;-66
2022/06/03 05:17:22;;;;;;;;;;;;;;;41.76;11.87;97163.16;6249843;28;19921;-67
2022/06/03 05:20:35;;;;;;;;;;;;;;;42.46;11.40;97167.28;6249795;28;19982;-67
2022/06/03 05:23:54;;;;;;;;;;;;;;;43.47;10.53;97167.59;6249874;28;19928;-66
2022/06/03 05:26:55;;;;;;;;;;;;;;;44.01;10.46;97170.78;6249799;28;20296;-66
2022/06/03 05:30:03;;;;;;;;;;;;;;;44.41;9.79;97173.81;6249852;28;19921;-67
2022/06/03 05:33:07;;;;;;;;;;;;;;;41.66;11.17;97154.97;6248172;28;19921;-66
2022/06/03 05:36:29;;;;;;;;;;;;;;;42.15;10.63;97151.91;6249692;28;19921;-67
2022/06/03 05:39:36;;;;;;;;;;;;;;;42.69;10.43;97151.72;6249631;28;19925;-67
2022/06/03 05:43:00;;;;;;;;;;;;;;;43.32;9.61;97156.00;6249563;28;19921;-67
2022/06/03 05:46:09;;;;;;;;;;;;;;;43.61;9.96;97155.75;6249429;28;19928;-67
2022/06/03 05:49:19;;;;;;;;;;;;;;;44.35;9.88;97161.22;6249576;28;19921;-66
2022/06/03 05:52:26;;;;;;;;;;;;;;;43.49;9.33;97153.47;6249575;28;19964;-67
2022/06/03 05:55:39;;;;;;;;;;;;;;;38.91;11.90;97144.19;6249463;28;20379;-67
2022/06/03 05:58:58;;;;;;;;;;;;;;;35.05;14.74;97134.88;6249523;28;20419;-67
2022/06/03 06:02:21;;;;;;;;;;;;;;;36.44;14.12;97135.66;6248985;28;20016;-67
2022/06/03 06:05:48;;;;;;;;;;;;;;;40.49;11.42;97138.25;6249056;28;20308;-67
2022/06/03 06:08:57;;;;;;;;;;;;;;;43.64;9.59;97150.41;6249330;28;20011;-67
2022/06/03 06:12:04;;;;;;;;;;;;;;;42.80;10.11;97142.97;6247617;28;19925;-66
2022/06/03 06:15:26;;;;;;;;;;;;;;;39.17;12.03;97134.00;6249043;28;19928;-66
2022/06/03 06:18:38;;;;;;;;;;;;;;;40.94;11.05;97138.22;6248801;28;19921;-67
2022/06/03 06:21:42;;;;;;;;;;;;;;;42.78;10.02;97136.94;6248492;28;20315;-67
2022/06/03 06:24:49;;;;;;;;;;;;;;;42.85;10.36;97138.50;6248341;28;19928;-66
2022/06/03 06:28:01;;;;;;;;;;;;;;;42.71;10.40;97139.22;6248602;28;19925;-67
2022/06/03 06:31:14;;;;;;;;;;;;;;;43.99;9.75;97136.97;6248284;28;19944;-67
2022/06/03 06:34:36;;;;;;;;;;;;;;;41.25;10.70;97136.88;6248490;28;19932;-67
2022/06/03 06:37:40;;;;;;;;;;;;;;;39.51;11.58;97126.78;6248503;28;19921;-68
2022/06/03 06:40:41;;;;;;;;;;;;;;;41.66;10.52;97132.88;6248063;28;19979;-66
2022/06/03 06:43:48;;;;;;;;;;;;;;;41.53;10.63;97123.31;6248103;28;19921;-67
2022/06/03 06:46:59;;;;;;;;;;;;;;;41.93;10.63;97124.00;6247808;28;20316;-67
2022/06/03 06:50:15;;;;;;;;;;;;;;;43.47;9.45;97128.81;6247738;28;19920;-67
2022/06/03 06:53:40;;;;;;;;;;;;;;;42.79;9.95;97123.91;6247858;28;20022;-68
2022/06/03 06:57:05;;;;;;;;;;;;;;;38.48;12.56;97113.34;6248205;28;20392;-66
2022/06/03 07:00:09;;;;;;;;;;;;;;;37.81;12.78;97099.34;6246795;28;19929;-67
2022/06/03 07:03:10;;;;;;;;;;;;;;;40.35;11.70;97095.88;6247402;28;20380;-66
2022/06/03 07:06:28;;;;;;;;;;;;;;;39.80;11.99;97095.84;6247531;28;19928;-66
2022/06/03 07:09:38;;;;;;;;;;;;;;;37.72;12.90;97098.22;6247044;28;19928;-67
2022/06/03 07:12:48;;;;;;;;;;;;;;;39.19;12.28;97102.34;6247528;28;20411;-65
2022/06/03 07:16:02;;;;;;;;;;;;;;;42.99;10.43;97103.38;6247475;28;20403;-67
2022/06/03 07:22:36;;;;;;;;;;;;;;;43.79;9.42;97106.88;6246935;28;19920;-67
2022/06/03 07:25:42;;;;;;;;;;;;;;;43.85;9.52;97106.50;6247312;28;20269;-67
2022/06/03 07:28:45;;;;;;;;;;;;;;;45.14;9.06;97107.19;6247119;28;19920;-68
2022/06/03 07:31:54;;;;;;;;;;;;;;;45.44;8.71;97099.97;6246911;28;19959;-67
2022/06/03 07:35:13;;;;;;;;;;;;;;;41.43;11.09;97085.59;6246975;28;19920;-68
2022/06/03 07:38:20;;;;;;;;;;;;;;;37.37;13.74;97069.50;6246869;28;19916;-68
2022/06/03 07:41:31;;;;;;;;;;;;;;;35.53;14.82;97065.00;6246678;28;19974;-67
2022/06/03 07:44:56;;;;;;;;;;;;;;;38.03;13.17;97059.91;6246660;28;19928;-66
2022/06/03 07:48:01;;;;;;;;;;;;;;;37.41;13.98;97062.38;6241902;28;19987;-67
2022/06/03 07:51:09;;;;;;;;;;;;;;;39.84;12.26;97071.34;6246693;28;19928;-67
2022/06/03 07:54:22;;;;;;;;;;;;;;;43.46;10.04;97076.50;6245538;28;19916;-67
2022/06/03 07:57:26;;;;;;;;;;;;;;;42.98;10.87;97065.75;6246083;28;20075;-66
2022/06/03 08:00:34;;;;;;;;;;;;;;;40.29;12.01;97066.72;6246567;28;19917;-67
2022/06/03 08:03:41;;;;;;;;;;;;;;;41.19;11.31;97060.72;6246448;28;19920;-67
2022/06/03 08:13:38;;;;;;;;;;;;;;;42.65;10.51;97054.66;6246132;28;19920;-67
2022/06/03 08:16:43;;;;;;;;;;;;;;;43.32;9.98;97056.28;6245850;28;19921;-67
2022/06/03 08:19:47;;;;;;;;;;;;;;;44.64;9.04;97071.19;6245871;28;20384;-66
2022/06/03 08:22:50;;;;;;;;;;;;;;;45.31;8.65;97062.00;6246399;28;19921;-67
2022/06/03 08:25:55;;;;;;;;;;;;;;;45.46;8.49;97072.66;6246062;28;19963;-67
2022/06/03 08:29:14;;;;;;;;;;;;;;;42.59;9.67;97047.56;6245811;28;20376;-67
2022/06/03 08:32:27;;;;;;;;;;;;;;;40.53;11.33;97053.81;6245642;28;19922;-68
2022/06/03 08:35:38;;;;;;;;;;;;;;;42.32;10.00;97037.22;6245235;28;20086;-68
2022/06/03 08:38:52;;;;;;;;;;;;;;;40.59;11.21;97051.84;6245720;28;19921;-66
2022/06/03 08:42:04;;;;;;;;;;;;;;;36.92;13.50;97059.88;6245896;28;20388;-66
2022/06/03 08:45:29;;;;;;;;;;;;;;;34.39;16.06;97045.19;6245493;28;19921;-67
2022/06/03 08:48:33;;;;;;;;;;;;;;;33.43;17.62;97042.28;6245420;28;19975;-68
2022/06/03 08:51:40;;;;;;;;;;;;;;;34.55;16.65;97042.75;6245470;28;20225;-67
2022/06/03 08:54:44;;;;;;;;;;;;;;;34.52;16.87;97048.72;6245104;28;19920;-66
2022/06/03 08:57:53;;;;;;;;;;;;;;;33.50;17.95;97042.13;6245535;28;20007;-67
2022/06/03 09:01:09;;;;;;;;;;;;;;;32.19;18.90;97056.78;6245833;28;19933;-69
2022/06/03 09:04:22;;;;;;;;;;;;;;;31.32;20.70;97054.31;6245522;28;19964;-68
2022/06/03 09:07:23;;;;;;;;;;;;;;;30.71;21.83;97046.97;6245596;28;19925;-68
2022/06/03 09:10:37;;;;;;;;;;;;;;;31.01;23.61;97047.13;6245191;28;19921;-66
2022/06/03 09:13:45;;;;;;;;;;;;;;;32.95;20.99;97050.72;6245331;28;19921;-67
2022/06/03 09:16:50;;;;;;;;;;;;;;;36.98;17.27;97057.97;6245547;28;19921;-68
2022/06/03 09:19:55;;;;;;;;;;;;;;;39.28;15.16;97062.13;6244772;28;19921;-67
2022/06/03 09:23:01;;;;;;;;;;;;;;;37.95;16.01;97056.59;6245312;28;19927;-68
2022/06/03 09:26:02;;;;;;;;;;;;;;;35.65;17.53;97046.56;6245106;28;19921;-69
2022/06/03 09:29:07;;;;;;;;;;;;;;;34.33;18.52;97045.38;6245212;28;20409;-69
2022/06/03 09:32:10;;;;;;;;;;;;;;;34.40;17.99;97041.41;6244825;28;19921;-68
2022/06/03 09:35:13;;;;;;;;;;;;;;;34.36;17.98;97044.88;6244928;28;19931;-70
2022/06/03 09:38:19;;;;;;;;;;;;;;;34.03;18.29;97049.19;6245134;28;19921;-68
2022/06/03 09:41:24;;;;;;;;;;;;;;;35.22;17.04;97042.72;6245750;28;19921;-67
2022/06/03 09:44:28;;;;;;;;;;;;;;;36.24;16.37;97042.28;6244907;28;20380;-68
2022/06/03 09:47:31;;;;;;;;;;;;;;;38.41;14.27;97036.63;6248688;28;19928;-67
2022/06/03 09:50:36;;;;;;;;;;;;;;;40.15;12.83;97048.00;6249788;28;19925;-67
2022/06/03 09:53:43;;;;;;;;;;;;;;;40.68;12.43;97052.91;6249106;28;20372;-68
2022/06/03 09:56:48;;;;;;;;;;;;;;;41.01;12.08;97042.94;6248902;28;19978;-68
2022/06/03 09:59:57;;;;;;;;;;;;;;;40.38;12.55;97052.00;6249478;28;20281;-67
2022/06/03 10:02:58;;;;;;;;;;;;;;;38.34;13.88;97036.88;6248911;28;19932;-67
2022/06/03 10:06:03;;;;;;;;;;;;;;;36.23;15.75;97030.47;6248935;28;19921;-67
2022/06/03 10:12:49;;;;;;;;;;;;;;;34.71;16.43;97020.09;6249309;28;19956;-67
2022/06/03 10:15:55;;;;;;;;;;;;;;;33.50;17.67;97010.22;6248656;28;19921;-69
2022/06/03 10:18:57;;;;;;;;;;;;;;;33.13;17.76;97011.63;6248780;28;19935;-67
2022/06/03 10:22:05;;;;;;;;;;;;;;;32.78;17.93;97001.53;6248318;28;19972;-68
2022/06/03 10:25:08;;;;;;;;;;;;;;;31.95;18.52;97003.31;6248248;28;19920;-69
2022/06/03 10:28:12;;;;;;;;;;;;;;;31.36;19.44;97004.94;6248356;28;19921;-68
2022/06/03 10:31:16;;;;;;;;;;;;;;;30.48;20.93;96992.44;6248334;28;19917;-68
2022/06/03 10:34:24;;;;;;;;;;;;;;;30.18;21.53;96993.09;6248419;28;20315;-67
2022/06/03 10:37:28;;;;;;;;;;;;;;;29.96;21.37;96990.75;6248010;28;19917;-68
2022/06/03 10:40:34;;;;;;;;;;;;;;;29.38;22.06;96988.13;6247767;28;19928;-68
2022/06/03 10:43:41;;;;;;;;;;;;;;;29.28;22.30;96987.78;6248197;28;19921;-67
2022/06/03 10:47:05;;;;;;;;;;;;;;;29.03;22.51;96974.94;6247720;28;19920;-68
2022/06/03 10:50:12;;;;;;;;;;;;;;;28.81;23.02;96970.81;6247675;28;19921;-72
2022/06/03 11:03:41;;;;;;;;;;;;;;;34.19;17.36;96971.13;6247709;28;19921;-67
2022/06/03 11:06:44;;;;;;;;;;;;;;;33.95;16.93;96963.06;6247481;28;19921;-67
2022/06/03 11:09:52;;;;;;;;;;;;;;;33.20;17.33;96952.31;6247053;28;19921;-67
2022/06/03 11:13:01;;;;;;;;;;;;;;;33.16;17.63;96953.91;6247398;28;20345;-67
2022/06/03 11:16:13;;;;;;;;;;;;;;;33.53;17.66;96949.75;6247221;28;19933;-68
2022/06/03 11:19:20;;;;;;;;;;;;;;;33.65;17.58;96946.13;6247027;28;20016;-68
2022/06/03 11:22:26;;;;;;;;;;;;;;;33.90;16.74;96941.13;6247596;28;19921;-67
2022/06/03 11:25:30;;;;;;;;;;;;;;;33.95;16.78;96941.22;6247160;28;20011;-68
2022/06/03 11:28:40;;;;;;;;;;;;;;;33.91;17.38;96941.94;6246922;28;19921;-67
2022/06/03 11:31:44;;;;;;;;;;;;;;;34.37;17.36;96942.75;6247172;28;20316;-67
2022/06/03 11:34:54;;;;;;;;;;;;;;;34.08;17.89;96936.53;6246793;28;20406;-68
2022/06/03 11:37:59;;;;;;;;;;;;;;;32.84;19.38;96927.03;6246896;28;19928;-67
2022/06/03 11:41:07;;;;;;;;;;;;;;;31.44;20.89;96936.66;6246596;28;19921;-68
2022/06/03 11:44:13;;;;;;;;;;;;;;;30.39;22.21;96946.56;6246608;28;19920;-67
2022/06/03 11:47:34;;;;;;;;;;;;;;;29.44;23.65;96941.22;6246521;28;20011;-68
2022/06/03 11:50:36;;;;;;;;;;;;;;;28.43;24.41;96937.16;6245732;28;20311;-68
2022/06/03 11:53:42;;;;;;;;;;;;;;;28.07;25.94;96937.56;6246180;28;19927;-67
2022/06/03 11:56:44;;;;;;;;;;;;;;;28.20;25.71;96926.75;6246481;28;19921;-67
2022/06/03 11:59:52;;;;;;;;;;;;;;;28.91;25.34;96927.88;6245998;28;19921;-68
2022/06/03 12:03:03;;;;;;;;;;;;;;;29.96;24.29;96928.34;6246262;28;19920;-68
2022/06/03 12:06:28;;;;;;;;;;;;;;;30.14;24.21;96921.31;6246144;28;19920;-68
2022/06/03 12:09:40;;;;;;;;;;;;;;;29.69;24.62;96921.47;6244945;28;19940;-68
2022/06/03 12:16:11;;;;;;;;;;;;;;;30.15;23.84;96915.69;6246026;28;20316;-67
2022/06/03 12:19:33;;;;;;;;;;;;;;;30.57;23.23;96905.06;6245828;28;20396;-67
2022/06/03 12:22:36;;;;;;;;;;;;;;;30.38;22.75;96896.06;6245926;28;19932;-68
2022/06/03 12:25:38;;;;;;;;;;;;;;;29.85;23.21;96895.69;6245867;28;19921;-67
2022/06/03 12:28:46;;;;;;;;;;;;;;;29.62;23.38;96894.38;6246076;28;20308;-68
2022/06/03 12:31:47;;;;;;;;;;;;;;;29.49;23.58;96897.97;6246001;28;20410;-68
2022/06/03 12:34:48;;;;;;;;;;;;;;;29.71;23.51;96884.94;6245547;28;19921;-68
2022/06/03 12:38:09;;;;;;;;;;;;;;;29.51;23.21;96901.31;6246016;28;20031;-68
2022/06/03 12:41:11;;;;;;;;;;;;;;;29.57;23.05;96893.38;6245595;28;20308;-67
2022/06/03 12:44:33;;;;;;;;;;;;;;;29.86;22.39;96900.88;6245681;28;19921;-69
2022/06/03 12:47:36;;;;;;;;;;;;;;;30.04;22.00;96899.28;6244217;28;19920;-69
2022/06/03 12:50:39;;;;;;;;;;;;;;;30.23;21.75;96898.28;6245340;28;19921;-69
2022/06/03 12:53:43;;;;;;;;;;;;;;;30.33;22.02;96893.19;6245725;28;19921;-67
2022/06/03 12:56:54;;;;;;;;;;;;;;;29.82;22.12;96891.53;6245345;28;19921;-68
2022/06/03 13:00:12;;;;;;;;;;;;;;;29.14;22.97;96892.16;6244228;28;20334;-68
2022/06/03 13:03:16;;;;;;;;;;;;;;;28.46;23.63;96887.19;6245510;28;20304;-67
2022/06/03 13:06:25;;;;;;;;;;;;;;;28.49;23.55;96884.06;6245067;28;19921;-67
2022/06/03 13:09:49;;;;;;;;;;;;;;;28.59;23.48;96887.16;6245076;28;19928;-67
2022/06/03 13:12:53;;;;;;;;;;;;;;;28.46;23.68;96883.66;6245399;28;19944;-67
2022/06/03 13:16:28;;;;;;;;;;;;;;;28.13;24.29;96876.41;6245473;28;20407;-69
2022/06/03 13:19:29;;;;;;;;;;;;;;;27.59;24.59;96886.38;6242736;28;19956;-68
2022/06/03 13:22:44;;;;;;;;;;;;;;;27.33;25.08;96886.34;6249580;28;20306;-67
2022/06/03 13:25:49;;;;;;;;;;;;;;;27.20;24.97;96890.66;6249565;28;19928;-68
2022/06/03 13:28:51;;;;;;;;;;;;;;;27.40;25.71;96925.81;6249600;28;19921;-67
2022/06/03 13:32:00;;;;;;;;;;;;;;;27.03;26.66;96935.25;6249744;28;19931;-67
2022/06/03 13:35:20;;;;;;;;;;;;;;;26.35;27.54;96938.59;6249505;28;20331;-68
2022/06/03 13:38:27;;;;;;;;;;;;;;;25.79;28.52;96935.88;6249351;28;19921;-68
2022/06/03 13:44:59;;;;;;;;;;;;;;;25.02;30.65;96928.38;6248828;28;19921;-67
2022/06/03 13:48:11;;;;;;;;;;;;;;;24.67;30.96;96930.03;6249011;28;19928;-67
2022/06/03 13:51:16;;;;;;;;;;;;;;;24.24;32.09;96922.56;6249073;28;19924;-68
2022/06/03 13:54:23;;;;;;;;;;;;;;;24.03;32.31;96936.72;6249012;28;19921;-67
2022/06/03 13:57:24;;;;;;;;;;;;;;;23.88;32.85;96935.84;6248638;28;20344;-67
2022/06/03 14:00:35;;;;;;;;;;;;;;;23.71;33.47;96933.31;6248795;28;19921;-68
2022/06/03 14:03:42;;;;;;;;;;;;;;;23.64;33.68;96943.06;6247733;28;19920;-67
2022/06/03 14:06:53;;;;;;;;;;;;;;;23.57;33.71;96936.75;6248577;28;19921;-68
2022/06/03 14:09:59;;;;;;;;;;;;;;;23.45;33.75;96927.44;6248488;28;19921;-68
2022/06/03 14:13:02;;;;;;;;;;;;;;;23.43;33.41;96932.97;6248607;28;19928;-68
2022/06/03 14:16:08;;;;;;;;;;;;;;;23.47;33.45;96925.41;6247884;28;19928;-69
2022/06/03 14:19:12;;;;;;;;;;;;;;;23.59;33.46;96923.16;6247935;28;19921;-67
2022/06/03 14:22:26;;;;;;;;;;;;;;;23.74;32.54;96922.19;6247842;28;20252;-68
2022/06/03 14:25:31;;;;;;;;;;;;;;;23.84;32.54;96926.50;6248187;28;19927;-68
2022/06/03 14:28:38;;;;;;;;;;;;;;;23.86;32.32;96927.13;6248381;28;19921;-68
2022/06/03 14:31:51;;;;;;;;;;;;;;;23.92;32.02;96921.03;6247081;28;20312;-66
2022/06/03 14:34:58;;;;;;;;;;;;;;;23.99;31.85;96924.66;6248245;28;20304;-68
2022/06/03 14:38:09;;;;;;;;;;;;;;;24.06;31.88;96925.63;6248131;28;19928;-68
2022/06/03 14:41:25;;;;;;;;;;;;;;;24.17;31.71;96913.56;6248006;28;19929;-68
2022/06/03 14:44:27;;;;;;;;;;;;;;;24.25;31.13;96918.03;6247829;28;20014;-67
2022/06/03 14:47:34;;;;;;;;;;;;;;;24.28;31.43;96917.66;6247912;28;19925;-67
2022/06/03 14:50:39;;;;;;;;;;;;;;;24.30;31.24;96921.00;6247835;28;19921;-67
2022/06/03 14:53:48;;;;;;;;;;;;;;;24.14;31.33;96922.81;6247245;28;19920;-67
2022/06/03 14:56:56;;;;;;;;;;;;;;;23.96;31.91;96919.66;6247653;28;19928;-69
2022/06/03 15:00:00;;;;;;;;;;;;;;;23.70;32.05;96923.59;6247661;28;19968;-69
2022/06/03 15:03:03;;;;;;;;;;;;;;;23.48;32.39;96916.34;6247652;28;19928;-68
2022/06/03 15:06:11;;;;;;;;;;;;;;;23.30;32.58;96917.47;6247906;28;19921;-68
2022/06/03 15:09:26;;;;;;;;;;;;;;;23.28;32.45;96916.81;6247659;28;19920;-67
2022/06/03 15:12:31;;;;;;;;;;;;;;;23.18;32.56;96915.38;6247993;28;19921;-67
2022/06/03 15:15:35;;;;;;;;;;;;;;;22.99;32.64;96908.63;6247430;28;19921;-68
2022/06/03 15:18:41;;;;;;;;;;;;;;;22.82;33.13;96900.63;6247049;28;19921;-68
2022/06/03 15:21:46;;;;;;;;;;;;;;;22.61;33.39;96905.75;6245879;28;19925;-67
2022/06/03 15:24:54;;;;;;;;;;;;;;;22.50;33.38;96906.13;6247136;28;19980;-68
2022/06/03 15:28:01;;;;;;;;;;;;;;;22.50;33.37;96906.13;6247352;28;19921;-69
2022/06/03 15:31:06;;;;;;;;;;;;;;;22.46;33.48;96913.69;6247363;28;19921;-68
2022/06/03 15:34:11;;;;;;;;;;;;;;;22.37;33.38;96904.81;6246946;28;19920;-67
2022/06/03 15:37:16;;;;;;;;;;;;;;;22.21;33.39;96894.16;6246972;28;19927;-68
2022/06/03 15:40:26;;;;;;;;;;;;;;;22.02;33.78;96902.53;6246532;28;19925;-68
2022/06/03 15:43:50;;;;;;;;;;;;;;;21.86;34.32;96896.22;6246771;28;19921;-68
2022/06/03 15:46:59;;;;;;;;;;;;;;;21.72;34.22;96904.94;6245971;28;20388;-68
2022/06/03 15:50:11;;;;;;;;;;;;;;;21.56;34.91;96902.25;6246631;28;19921;-68
2022/06/03 15:53:21;;;;;;;;;;;;;;;21.42;34.72;96899.22;6246695;28;19924;-67
2022/06/03 15:56:33;;;;;;;;;;;;;;;21.27;35.11;96900.88;6246391;28;19921;-68
2022/06/03 15:59:37;;;;;;;;;;;;;;;21.08;35.69;96910.84;6245999;28;19940;-68
2022/06/03 16:02:54;;;;;;;;;;;;;;;20.90;35.82;96912.84;6246285;28;19921;-67
2022/06/03 16:06:01;;;;;;;;;;;;;;;20.72;36.41;96904.94;6245811;28;19932;-68
2022/06/03 16:09:05;;;;;;;;;;;;;;;20.56;37.00;96905.72;6246522;28;20007;-68
2022/06/03 16:12:24;;;;;;;;;;;;;;;20.44;36.61;96906.97;6246120;28;20307;-69
2022/06/03 16:15:31;;;;;;;;;;;;;;;20.30;37.15;96910.25;6246108;28;20388;-68
2022/06/03 16:18:35;;;;;;;;;;;;;;;20.16;37.14;96904.50;6246077;28;20042;-69
2022/06/03 16:21:57;;;;;;;;;;;;;;;20.05;37.44;96909.28;6245871;28;19920;-68
2022/06/03 16:25:20;;;;;;;;;;;;;;;19.91;36.96;96910.69;6245900;28;20019;-68
2022/06/03 16:28:34;;;;;;;;;;;;;;;19.79;37.37;96906.56;6246202;28;19921;-70
2022/06/03 16:31:36;;;;;;;;;;;;;;;19.73;37.86;96908.91;6245665;28;19921;-69
2022/06/03 16:34:37;;;;;;;;;;;;;;;19.69;37.66;96909.34;6245902;28;20040;-69
2022/06/03 16:37:46;;;;;;;;;;;;;;;19.67;37.53;96912.19;6245969;28;19920;-68
2022/06/03 16:40:57;;;;;;;;;;;;;;;19.61;39.23;96902.06;6245857;28;19920;-69
2022/06/03 16:44:19;;;;;;;;;;;;;;;19.59;37.87;96904.09;6245434;28;19920;-68
2022/06/03 16:47:29;;;;;;;;;;;;;;;19.61;37.90;96904.75;6245741;28;20415;-67
2022/06/03 16:50:34;;;;;;;;;;;;;;;19.57;37.70;96900.72;6245321;28;20067;-68
2022/06/03 16:53:38;;;;;;;;;;;;;;;19.52;38.46;96905.69;6245386;28;20371;-69
2022/06/03 16:56:41;;;;;;;;;;;;;;;19.48;37.98;96907.00;6248706;28;19921;-68
2022/06/03 17:00:03;;;;;;;;;;;;;;;19.40;37.99;96901.59;6250612;28;19947;-68
2022/06/03 17:03:08;;;;;;;;;;;;;;;19.35;38.36;96904.69;6250172;28;19925;-68